createdAt,value
2022-11-07T00:00:07.566Z,51.323479
2022-11-07T00:01:07.539Z,51.323463
2022-11-07T00:02:07.655Z,51.323452
2022-11-07T00:03:07.585Z,51.323414
2022-11-07T00:04:07.476Z,51.323406
2022-11-07T00:05:07.460Z,51.323387
2022-11-07T00:06:07.437Z,51.323467
2022-11-07T00:07:07.432Z,51.323471
2022-11-07T00:08:07.434Z,51.323452
2022-11-07T00:09:07.383Z,51.323452
2022-11-07T00:10:07.368Z,51.323437
2022-11-07T00:11:07.350Z,51.323429
2022-11-07T00:12:07.335Z,51.323425
2022-11-07T00:13:07.345Z,51.323441
2022-11-07T00:14:07.296Z,51.323441
2022-11-07T00:15:07.267Z,51.323452
2022-11-07T00:16:07.276Z,51.323425
2022-11-07T00:17:07.251Z,51.323402
2022-11-07T00:18:07.264Z,51.323383
2022-11-07T00:19:07.212Z,51.323421
2022-11-07T00:20:07.223Z,51.323448
2022-11-07T00:21:07.189Z,51.323452
2022-11-07T00:22:07.165Z,51.323429
2022-11-07T00:23:07.146Z,51.323437
2022-11-07T00:24:07.124Z,51.323429
2022-11-07T00:25:07.134Z,51.323452
2022-11-07T00:26:07.095Z,51.323441
2022-11-07T00:27:07.985Z,51.323406
2022-11-07T00:28:07.102Z,51.323402
2022-11-07T00:29:07.045Z,51.323441
2022-11-07T00:30:07.031Z,51.323433
2022-11-07T00:31:07.008Z,51.323452
2022-11-07T00:32:07.025Z,51.323448
2022-11-07T00:33:07.013Z,51.323456
2022-11-07T00:34:06.963Z,51.323456
2022-11-07T00:35:06.944Z,51.323421
2022-11-07T00:36:06.945Z,51.323395
2022-11-07T00:37:06.909Z,51.323425
2022-11-07T00:38:06.924Z,51.323429
2022-11-07T00:39:06.871Z,51.323425
2022-11-07T00:40:06.856Z,51.323421
2022-11-07T00:41:06.838Z,51.323441
2022-11-07T00:42:06.823Z,51.323437
2022-11-07T00:43:06.852Z,51.323421
2022-11-07T00:44:06.796Z,51.323433
2022-11-07T00:45:06.774Z,51.323433
2022-11-07T00:46:06.751Z,51.323433
2022-11-07T00:47:06.743Z,51.323452
2022-11-07T00:48:06.753Z,51.323448
2022-11-07T00:49:06.720Z,51.323433
2022-11-07T00:50:06.688Z,51.323433
2022-11-07T00:51:06.728Z,51.323444
2022-11-07T00:52:06.657Z,51.323425
2022-11-07T00:53:06.675Z,51.323414
2022-11-07T00:54:06.616Z,51.323448
2022-11-07T00:55:06.600Z,51.323452
2022-11-07T00:56:06.588Z,51.323448
2022-11-07T00:57:06.566Z,51.323425
2022-11-07T00:58:09.851Z,51.323418
2022-11-07T00:59:08.530Z,51.323441
2022-11-07T01:00:06.519Z,51.323467
2022-11-07T01:01:06.508Z,51.323444
2022-11-07T01:02:06.575Z,51.323429
2022-11-07T01:03:06.495Z,51.323425
2022-11-07T01:04:06.459Z,51.323433
2022-11-07T01:05:06.434Z,51.323402
2022-11-07T01:06:06.443Z,51.323414
2022-11-07T01:07:06.390Z,51.323452
2022-11-07T01:08:07.402Z,51.323425
2022-11-07T01:09:06.367Z,51.323410
2022-11-07T01:10:06.349Z,51.323429
2022-11-07T01:11:06.336Z,51.323429
2022-11-07T01:12:06.315Z,51.323410
2022-11-07T01:13:06.323Z,51.323421
2022-11-07T01:14:06.270Z,51.323421
2022-11-07T01:15:06.253Z,51.323429
2022-11-07T01:16:06.235Z,51.323437
2022-11-07T01:17:06.220Z,51.323425
2022-11-07T01:18:06.202Z,51.323383
2022-11-07T01:19:06.212Z,51.323406
2022-11-07T01:20:06.164Z,51.323402
2022-11-07T01:21:06.152Z,51.323467
2022-11-07T01:22:06.128Z,51.323425
2022-11-07T01:23:06.121Z,51.323437
2022-11-07T01:24:06.121Z,51.323456
2022-11-07T01:25:06.081Z,51.323425
2022-11-07T01:26:06.069Z,51.323406
2022-11-07T01:27:06.046Z,51.323421
2022-11-07T01:28:06.028Z,51.323418
2022-11-07T01:29:06.036Z,51.323425
2022-11-07T01:30:05.999Z,51.323444
2022-11-07T01:31:05.975Z,51.323437
2022-11-07T01:32:05.983Z,51.323441
2022-11-07T01:33:05.938Z,51.323429
2022-11-07T01:34:05.948Z,51.323425
2022-11-07T01:35:05.899Z,51.323444
2022-11-07T01:36:06.412Z,51.323433
2022-11-07T01:37:06.871Z,51.323395
2022-11-07T01:38:05.853Z,51.323437
2022-11-07T01:39:05.863Z,51.323452
2022-11-07T01:40:05.820Z,51.323452
2022-11-07T01:41:05.808Z,51.323414
2022-11-07T01:42:05.782Z,51.323441
2022-11-07T01:43:05.768Z,51.323448
2022-11-07T01:44:05.779Z,51.323406
2022-11-07T01:45:05.727Z,51.323421
2022-11-07T01:46:05.710Z,51.323448
2022-11-07T01:47:05.702Z,51.323444
2022-11-07T01:48:05.681Z,51.323460
2022-11-07T01:49:05.684Z,51.323437
2022-11-07T01:50:05.701Z,51.323418
2022-11-07T01:51:05.627Z,51.323441
2022-11-07T01:52:05.613Z,51.323452
2022-11-07T01:53:05.598Z,51.323448
2022-11-07T01:54:05.601Z,51.323441
2022-11-07T01:55:05.558Z,51.323429
2022-11-07T01:56:05.565Z,51.323444
2022-11-07T01:57:05.523Z,51.323410
2022-11-07T01:58:05.503Z,51.323460
2022-11-07T01:59:05.521Z,51.323479
2022-11-07T02:00:05.475Z,51.323475
2022-11-07T02:01:05.458Z,51.323467
2022-11-07T02:02:05.609Z,51.323395
2022-11-07T02:03:05.506Z,51.323380
2022-11-07T02:04:05.431Z,51.323448
2022-11-07T02:05:05.389Z,51.323418
2022-11-07T02:06:05.383Z,51.323448
2022-11-07T02:07:05.355Z,51.323452
2022-11-07T02:08:05.341Z,51.323441
2022-11-07T02:09:05.357Z,51.323433
2022-11-07T02:10:05.301Z,51.323429
2022-11-07T02:11:05.285Z,51.323441
2022-11-07T02:12:05.270Z,51.323433
2022-11-07T02:13:05.249Z,51.323429
2022-11-07T02:14:05.257Z,51.323460
2022-11-07T02:15:05.235Z,51.323483
2022-11-07T02:16:05.213Z,51.323437
2022-11-07T02:17:05.187Z,51.323421
2022-11-07T02:18:05.185Z,51.323425
2022-11-07T02:19:05.188Z,51.323452
2022-11-07T02:20:05.139Z,51.323406
2022-11-07T02:21:05.111Z,51.323425
2022-11-07T02:22:05.141Z,51.323418
2022-11-07T02:23:05.081Z,51.323391
2022-11-07T02:24:05.066Z,51.323414
2022-11-07T02:25:05.044Z,51.323402
2022-11-07T02:26:05.033Z,51.323421
2022-11-07T02:27:05.033Z,51.323452
2022-11-07T02:28:04.999Z,51.323483
2022-11-07T02:29:05.005Z,51.323502
2022-11-07T02:30:04.960Z,51.323483
2022-11-07T02:31:04.939Z,51.323532
2022-11-07T02:32:04.921Z,51.323471
2022-11-07T02:33:04.908Z,51.323475
2022-11-07T02:34:04.921Z,51.323471
2022-11-07T02:35:04.883Z,51.323490
2022-11-07T02:36:04.858Z,51.323471
2022-11-07T02:37:04.833Z,51.323517
2022-11-07T02:38:05.864Z,51.323494
2022-11-07T02:39:04.815Z,51.323452
2022-11-07T02:40:04.801Z,51.323467
2022-11-07T02:41:04.782Z,51.323460
2022-11-07T02:42:04.765Z,51.323483
2022-11-07T02:43:04.771Z,51.323452
2022-11-07T02:44:04.753Z,51.323448
2022-11-07T02:45:04.712Z,51.323456
2022-11-07T02:46:04.696Z,51.323444
2022-11-07T02:47:04.688Z,51.323467
2022-11-07T02:48:04.664Z,51.323475
2022-11-07T02:49:04.670Z,51.323467
2022-11-07T02:50:04.633Z,51.323475
2022-11-07T02:51:04.613Z,51.323429
2022-11-07T02:52:04.605Z,51.323421
2022-11-07T02:53:04.580Z,51.323444
2022-11-07T02:54:04.594Z,51.323475
2022-11-07T02:55:04.549Z,51.323421
2022-11-07T02:56:04.536Z,51.323380
2022-11-07T02:57:04.517Z,51.323456
2022-11-07T02:58:04.527Z,51.323456
2022-11-07T02:59:04.510Z,51.323460
2022-11-07T03:00:04.467Z,51.323479
2022-11-07T03:01:04.447Z,51.323452
2022-11-07T03:02:04.496Z,51.323421
2022-11-07T03:03:04.410Z,51.323475
2022-11-07T03:04:04.413Z,51.323467
2022-11-07T03:05:04.372Z,51.323475
2022-11-07T03:06:04.356Z,51.323502
2022-11-07T03:07:04.339Z,51.323452
2022-11-07T03:08:04.320Z,51.323441
2022-11-07T03:09:04.337Z,51.323437
2022-11-07T03:10:04.280Z,51.323475
2022-11-07T03:11:05.274Z,51.323460
2022-11-07T03:12:04.254Z,51.323448
2022-11-07T03:13:04.244Z,51.323460
2022-11-07T03:14:04.246Z,51.323429
2022-11-07T03:15:04.236Z,51.323425
2022-11-07T03:16:04.185Z,51.323448
2022-11-07T03:17:04.163Z,51.323471
2022-11-07T03:18:04.277Z,51.323460
2022-11-07T03:19:04.158Z,51.323463
2022-11-07T03:20:04.781Z,51.323441
2022-11-07T03:21:04.102Z,51.323410
2022-11-07T03:22:04.092Z,51.323441
2022-11-07T03:23:04.066Z,51.323456
2022-11-07T03:24:04.072Z,51.323448
2022-11-07T03:25:04.055Z,51.323452
2022-11-07T03:26:04.009Z,51.323444
2022-11-07T03:27:04.015Z,51.323425
2022-11-07T03:28:03.976Z,51.323448
2022-11-07T03:29:03.980Z,51.323441
2022-11-07T03:30:03.965Z,51.323448
2022-11-07T03:31:03.927Z,51.323444
2022-11-07T03:32:03.900Z,51.323437
2022-11-07T03:33:03.883Z,51.323460
2022-11-07T03:34:03.901Z,51.323452
2022-11-07T03:35:03.926Z,51.323444
2022-11-07T03:36:03.855Z,51.323444
2022-11-07T03:37:03.814Z,51.323452
2022-11-07T03:38:03.815Z,51.323452
2022-11-07T03:39:03.808Z,51.323425
2022-11-07T03:40:04.761Z,51.323437
2022-11-07T03:41:03.748Z,51.323448
2022-11-07T03:42:03.737Z,51.323437
2022-11-07T03:43:03.708Z,51.323444
2022-11-07T03:44:03.719Z,51.323433
2022-11-07T03:45:03.678Z,51.323433
2022-11-07T03:46:03.669Z,51.323437
2022-11-07T03:47:04.416Z,51.323433
2022-11-07T03:48:03.638Z,51.323429
2022-11-07T03:49:03.636Z,51.323425
2022-11-07T03:50:03.588Z,51.323444
2022-11-07T03:51:03.582Z,51.323429
2022-11-07T03:52:03.556Z,51.323448
2022-11-07T03:53:03.539Z,51.323463
2022-11-07T03:54:03.559Z,51.323448
2022-11-07T03:55:03.503Z,51.323441
2022-11-07T03:56:03.486Z,51.323444
2022-11-07T03:57:03.472Z,51.323441
2022-11-07T03:58:03.448Z,51.323452
2022-11-07T03:59:03.456Z,51.323467
2022-11-07T04:00:03.417Z,51.323456
2022-11-07T04:01:03.425Z,51.323448
2022-11-07T04:02:03.434Z,51.323444
2022-11-07T04:03:03.425Z,51.323456
2022-11-07T04:04:03.364Z,51.323452
2022-11-07T04:05:03.327Z,51.323433
2022-11-07T04:06:03.313Z,51.323441
2022-11-07T04:07:03.289Z,51.323437
2022-11-07T04:08:03.273Z,51.323460
2022-11-07T04:09:03.281Z,51.323456
2022-11-07T04:10:03.238Z,51.323448
2022-11-07T04:11:03.225Z,51.323456
2022-11-07T04:12:03.205Z,51.323448
2022-11-07T04:13:03.193Z,51.323456
2022-11-07T04:14:03.202Z,51.323463
2022-11-07T04:15:03.169Z,51.323452
2022-11-07T04:16:03.136Z,51.323456
2022-11-07T04:17:03.127Z,51.323444
2022-11-07T04:18:03.114Z,51.323441
2022-11-07T04:19:03.105Z,51.323452
2022-11-07T04:20:03.061Z,51.323437
2022-11-07T04:21:03.053Z,51.323444
2022-11-07T04:22:03.030Z,51.323467
2022-11-07T04:23:03.012Z,51.323460
2022-11-07T04:24:03.053Z,51.323456
2022-11-07T04:25:02.993Z,51.323437
2022-11-07T04:26:02.959Z,51.323406
2022-11-07T04:27:02.945Z,51.323425
2022-11-07T04:28:02.927Z,51.323441
2022-11-07T04:29:02.936Z,51.323437
2022-11-07T04:30:02.899Z,51.323414
2022-11-07T04:31:03.803Z,51.323441
2022-11-07T04:32:03.798Z,51.323441
2022-11-07T04:33:02.842Z,51.323467
2022-11-07T04:34:02.849Z,51.323502
2022-11-07T04:35:02.804Z,51.323502
2022-11-07T04:36:02.804Z,51.323452
2022-11-07T04:37:02.780Z,51.323448
2022-11-07T04:38:03.304Z,51.323433
2022-11-07T04:39:02.771Z,51.323402
2022-11-07T04:40:02.732Z,51.323410
2022-11-07T04:41:02.702Z,51.323444
2022-11-07T04:42:02.685Z,51.323444
2022-11-07T04:43:02.671Z,51.323452
2022-11-07T04:44:02.920Z,51.323475
2022-11-07T04:45:02.640Z,51.323441
2022-11-07T04:46:02.619Z,51.323448
2022-11-07T04:47:02.603Z,51.323418
2022-11-07T04:48:03.582Z,51.323437
2022-11-07T04:49:02.595Z,51.323421
2022-11-07T04:50:02.555Z,51.323463
2022-11-07T04:51:02.543Z,51.323421
2022-11-07T04:52:02.517Z,51.323418
2022-11-07T04:53:02.503Z,51.323414
2022-11-07T04:54:02.601Z,51.323433
2022-11-07T04:55:02.469Z,51.323418
2022-11-07T04:56:02.475Z,51.323410
2022-11-07T04:57:02.436Z,51.323452
2022-11-07T04:58:02.429Z,51.323479
2022-11-07T04:59:02.447Z,51.323395
2022-11-07T05:00:02.902Z,51.323368
2022-11-07T05:01:02.389Z,51.323364
2022-11-07T05:02:02.440Z,51.323383
2022-11-07T05:03:02.393Z,51.323429
2022-11-07T05:04:02.352Z,51.323330
2022-11-07T05:05:02.296Z,51.323360
2022-11-07T05:06:02.271Z,51.323448
2022-11-07T05:07:02.299Z,51.323414
2022-11-07T05:08:02.235Z,51.323425
2022-11-07T05:09:02.263Z,51.323406
2022-11-07T05:10:02.202Z,51.323410
2022-11-07T05:11:02.194Z,51.323391
2022-11-07T05:12:02.174Z,51.323372
2022-11-07T05:13:02.166Z,51.323372
2022-11-07T05:14:02.169Z,51.323399
2022-11-07T05:15:02.118Z,51.323383
2022-11-07T05:16:02.119Z,51.323387
2022-11-07T05:17:02.084Z,51.323380
2022-11-07T05:18:02.065Z,51.323395
2022-11-07T05:19:02.463Z,51.323380
2022-11-07T05:20:02.034Z,51.323387
2022-11-07T05:21:02.014Z,51.323372
2022-11-07T05:22:01.998Z,51.323383
2022-11-07T05:23:01.977Z,51.323383
2022-11-07T05:24:01.991Z,51.323391
2022-11-07T05:25:01.948Z,51.323391
2022-11-07T05:26:01.929Z,51.323357
2022-11-07T05:27:01.905Z,51.323357
2022-11-07T05:28:01.887Z,51.323380
2022-11-07T05:29:01.901Z,51.323364
2022-11-07T05:30:01.864Z,51.323395
2022-11-07T05:31:01.841Z,51.323395
2022-11-07T05:32:02.781Z,51.323395
2022-11-07T05:33:01.800Z,51.323410
2022-11-07T05:34:01.813Z,51.323414
2022-11-07T05:35:01.768Z,51.323418
2022-11-07T05:36:01.752Z,51.323395
2022-11-07T05:37:02.287Z,51.323387
2022-11-07T05:38:01.711Z,51.323410
2022-11-07T05:39:01.758Z,51.323452
2022-11-07T05:40:01.681Z,51.323395
2022-11-07T05:41:01.661Z,51.323395
2022-11-07T05:42:02.651Z,51.323391
2022-11-07T05:43:01.791Z,51.323376
2022-11-07T05:44:01.642Z,51.323360
2022-11-07T05:45:01.593Z,51.323372
2022-11-07T05:46:01.578Z,51.323399
2022-11-07T05:47:01.559Z,51.323391
2022-11-07T05:48:01.546Z,51.323383
2022-11-07T05:49:01.543Z,51.323399
2022-11-07T05:50:01.533Z,51.323406
2022-11-07T05:51:01.484Z,51.323399
2022-11-07T05:52:01.475Z,51.323410
2022-11-07T05:53:01.536Z,51.323406
2022-11-07T05:54:01.465Z,51.323376
2022-11-07T05:55:01.413Z,51.323380
2022-11-07T05:56:01.395Z,51.323406
2022-11-07T05:57:01.387Z,51.323372
2022-11-07T05:58:06.829Z,51.323380
2022-11-07T05:59:03.377Z,51.323402
2022-11-07T06:00:01.340Z,51.323399
2022-11-07T06:01:01.310Z,51.323421
2022-11-07T06:02:01.417Z,51.323418
2022-11-07T06:03:01.340Z,51.323437
2022-11-07T06:04:01.258Z,51.323399
2022-11-07T06:05:01.267Z,51.323395
2022-11-07T06:06:01.229Z,51.323395
2022-11-07T06:07:01.213Z,51.323387
2022-11-07T06:08:01.191Z,51.323372
2022-11-07T06:09:01.183Z,51.323402
2022-11-07T06:10:01.185Z,51.323383
2022-11-07T06:11:01.133Z,51.323399
2022-11-07T06:12:01.121Z,51.323406
2022-11-07T06:13:01.102Z,51.323414
2022-11-07T06:14:01.137Z,51.323372
2022-11-07T06:15:01.096Z,51.323383
2022-11-07T06:16:01.046Z,51.323391
2022-11-07T06:17:01.056Z,51.323391
2022-11-07T06:18:01.013Z,51.323387
2022-11-07T06:19:00.995Z,51.323418
2022-11-07T06:20:01.013Z,51.323395
2022-11-07T06:21:00.958Z,51.323368
2022-11-07T06:22:00.941Z,51.323349
2022-11-07T06:23:00.930Z,51.323380
2022-11-07T06:24:00.909Z,51.323387
2022-11-07T06:25:00.919Z,51.323402
2022-11-07T06:26:00.881Z,51.323380
2022-11-07T06:27:00.861Z,51.323376
2022-11-07T06:28:00.830Z,51.323395
2022-11-07T06:29:01.822Z,51.323410
2022-11-07T06:30:00.830Z,51.323429
2022-11-07T06:31:00.985Z,51.323402
2022-11-07T06:32:00.791Z,51.323399
2022-11-07T06:33:00.757Z,51.323421
2022-11-07T06:34:00.768Z,51.323425
2022-11-07T06:35:00.745Z,51.323410
2022-11-07T06:36:00.701Z,51.323414
2022-11-07T06:37:03.308Z,51.323414
2022-11-07T06:38:01.676Z,51.323402
2022-11-07T06:39:00.658Z,51.323402
2022-11-07T06:40:00.665Z,51.323418
2022-11-07T06:41:00.620Z,51.323418
2022-11-07T06:42:00.600Z,51.323437
2022-11-07T06:43:00.591Z,51.323437
2022-11-07T06:44:00.562Z,51.323421
2022-11-07T06:45:00.588Z,51.323429
2022-11-07T06:46:00.534Z,51.323452
2022-11-07T06:47:00.602Z,51.323448
2022-11-07T06:48:00.505Z,51.323441
2022-11-07T06:49:00.479Z,51.323456
2022-11-07T06:50:00.492Z,51.323444
2022-11-07T06:51:00.445Z,51.323460
2022-11-07T06:52:00.425Z,51.323429
2022-11-07T06:53:00.431Z,51.323414
2022-11-07T06:54:00.397Z,51.323410
2022-11-07T06:55:00.408Z,51.323425
2022-11-07T06:56:00.358Z,51.323429
2022-11-07T06:57:00.338Z,51.323414
2022-11-07T06:58:00.347Z,51.323425
2022-11-07T06:59:00.317Z,51.323433
2022-11-07T07:00:00.316Z,51.323441
2022-11-07T07:01:00.370Z,51.323425
2022-11-07T07:02:00.306Z,51.323418
2022-11-07T07:03:00.290Z,51.323414
2022-11-07T07:04:00.223Z,51.323429
2022-11-07T07:05:00.275Z,51.323410
2022-11-07T07:06:00.191Z,51.323418
2022-11-07T07:07:00.169Z,51.323433
2022-11-07T07:08:00.147Z,51.323448
2022-11-07T07:09:00.138Z,51.323418
2022-11-07T07:10:00.145Z,51.323399
2022-11-07T07:11:00.095Z,51.323387
2022-11-07T07:12:00.077Z,51.323391
2022-11-07T07:13:00.050Z,51.323425
2022-11-07T07:14:02.309Z,51.323448
2022-11-07T07:15:01.056Z,51.323448
2022-11-07T07:15:59.994Z,51.323414
2022-11-07T07:17:00.004Z,51.323475
2022-11-07T07:17:59.961Z,51.323444
2022-11-07T07:19:00.026Z,51.323414
2022-11-07T07:19:59.949Z,51.323429
2022-11-07T07:20:59.907Z,51.323418
2022-11-07T07:21:59.912Z,51.323433
2022-11-07T07:23:16.102Z,51.323425
2022-11-07T07:24:01.857Z,51.323418
2022-11-07T07:24:59.870Z,51.323402
2022-11-07T07:25:59.835Z,51.323418
2022-11-07T07:26:59.801Z,51.323425
2022-11-07T07:27:59.787Z,51.323444
2022-11-07T07:28:59.771Z,51.323441
2022-11-07T07:29:59.797Z,51.323448
2022-11-07T07:30:59.738Z,51.323433
2022-11-07T07:31:59.717Z,51.323414
2022-11-07T07:32:59.704Z,51.323406
2022-11-07T07:33:59.685Z,51.323410
2022-11-07T07:34:59.762Z,51.323425
2022-11-07T07:35:59.648Z,51.323437
2022-11-07T07:36:59.631Z,51.323452
2022-11-07T07:37:59.612Z,51.323452
2022-11-07T07:38:59.594Z,51.323429
2022-11-07T07:39:59.621Z,51.323444
2022-11-07T07:40:59.556Z,51.323429
2022-11-07T07:41:59.551Z,51.323433
2022-11-07T07:42:59.524Z,51.323448
2022-11-07T07:43:59.512Z,51.323460
2022-11-07T07:44:59.520Z,51.323471
2022-11-07T07:45:59.481Z,51.323463
2022-11-07T07:46:59.457Z,51.323475
2022-11-07T07:47:59.441Z,51.323433
2022-11-07T07:48:59.447Z,51.323433
2022-11-07T07:49:59.428Z,51.323414
2022-11-07T07:50:59.452Z,51.323414
2022-11-07T07:51:59.376Z,51.323406
2022-11-07T07:53:00.703Z,51.323429
2022-11-07T07:53:59.339Z,51.323429
2022-11-07T07:54:59.347Z,51.323425
2022-11-07T07:55:59.287Z,51.323433
2022-11-07T07:56:59.297Z,51.323402
2022-11-07T07:57:59.255Z,51.323448
2022-11-07T07:58:59.224Z,51.323444
2022-11-07T08:00:00.244Z,51.323437
2022-11-07T08:00:59.257Z,51.323467
2022-11-07T08:01:59.223Z,51.323479
2022-11-07T08:02:59.155Z,51.323460
2022-11-07T08:04:02.117Z,51.323456
2022-11-07T08:05:00.144Z,51.323380
2022-11-07T08:05:59.093Z,51.323380
2022-11-07T08:06:59.149Z,51.323395
2022-11-07T08:07:59.055Z,51.323460
2022-11-07T08:08:59.042Z,51.323391
2022-11-07T08:10:01.951Z,51.323421
2022-11-07T08:10:59.995Z,51.323399
2022-11-07T08:11:58.976Z,51.323402
2022-11-07T08:12:58.951Z,51.323429
2022-11-07T08:14:01.569Z,51.323433
2022-11-07T08:14:59.944Z,51.323437
2022-11-07T08:15:58.891Z,51.323410
2022-11-07T08:16:58.878Z,51.323402
2022-11-07T08:17:58.869Z,51.323448
2022-11-07T08:18:58.845Z,51.323437
2022-11-07T08:19:58.843Z,51.323429
2022-11-07T08:20:58.792Z,51.323463
2022-11-07T08:21:58.775Z,51.323452
2022-11-07T08:22:58.831Z,51.323406
2022-11-07T08:23:58.729Z,51.323444
2022-11-07T08:24:58.735Z,51.323448
2022-11-07T08:25:58.695Z,51.323456
2022-11-07T08:26:58.668Z,51.323448
2022-11-07T08:27:58.655Z,51.323441
2022-11-07T08:28:58.625Z,51.323391
2022-11-07T08:29:58.645Z,51.323383
2022-11-07T08:30:58.587Z,51.323429
2022-11-07T08:31:58.566Z,51.323456
2022-11-07T08:32:58.548Z,51.323460
2022-11-07T08:33:58.617Z,51.323452
2022-11-07T08:34:58.532Z,51.323444
2022-11-07T08:35:58.490Z,51.323452
2022-11-07T08:36:58.475Z,51.323444
2022-11-07T08:37:58.451Z,51.323410
2022-11-07T08:38:58.432Z,51.323444
2022-11-07T08:39:58.438Z,51.323456
2022-11-07T08:40:58.389Z,51.323437
2022-11-07T08:41:58.365Z,51.323437
2022-11-07T08:42:58.343Z,51.323441
2022-11-07T08:43:58.323Z,51.323429
2022-11-07T08:44:58.329Z,51.323460
2022-11-07T08:45:58.283Z,51.323421
2022-11-07T08:46:58.277Z,51.323399
2022-11-07T08:47:58.234Z,51.323429
2022-11-07T08:48:58.210Z,51.323475
2022-11-07T08:49:58.218Z,51.323471
2022-11-07T08:50:58.190Z,51.323437
2022-11-07T08:51:58.164Z,51.323483
2022-11-07T08:53:02.464Z,51.323483
2022-11-07T08:53:59.109Z,51.323521
2022-11-07T08:54:58.141Z,51.323433
2022-11-07T08:55:58.070Z,51.323429
2022-11-07T08:56:58.051Z,51.323433
2022-11-07T08:57:58.026Z,51.323433
2022-11-07T08:58:58.003Z,51.323383
2022-11-07T08:59:58.007Z,51.323437
2022-11-07T09:00:58.041Z,51.323437
2022-11-07T09:02:36.861Z,51.323399
2022-11-07T09:04:00.174Z,51.323414
2022-11-07T09:04:57.927Z,51.323410
2022-11-07T09:05:57.850Z,51.323391
2022-11-07T09:06:57.835Z,51.323402
2022-11-07T09:07:57.806Z,51.323395
2022-11-07T09:08:57.787Z,51.323410
2022-11-07T09:09:57.794Z,51.323433
2022-11-07T09:10:57.791Z,51.323418
2022-11-07T09:11:57.730Z,51.323425
2022-11-07T09:12:57.713Z,51.323395
2022-11-07T09:13:57.687Z,51.323452
2022-11-07T09:14:57.687Z,51.323421
2022-11-07T09:15:57.642Z,51.323418
2022-11-07T09:16:57.621Z,51.323410
2022-11-07T09:17:57.603Z,51.323425
2022-11-07T09:18:57.578Z,51.323414
2022-11-07T09:19:57.588Z,51.323437
2022-11-07T09:20:57.532Z,51.323410
2022-11-07T09:21:57.517Z,51.323391
2022-11-07T09:22:57.487Z,51.323395
2022-11-07T09:23:57.469Z,51.323376
2022-11-07T09:24:57.478Z,51.323406
2022-11-07T09:25:57.436Z,51.323406
2022-11-07T09:26:57.409Z,51.323380
2022-11-07T09:27:57.385Z,51.323376
2022-11-07T09:29:01.104Z,51.323357
2022-11-07T09:29:58.372Z,51.323395
2022-11-07T09:30:57.345Z,51.323395
2022-11-07T09:31:57.308Z,51.323387
2022-11-07T09:32:57.284Z,51.323402
2022-11-07T09:33:57.259Z,51.323399
2022-11-07T09:35:03.429Z,51.323429
2022-11-07T09:35:58.222Z,51.323402
2022-11-07T09:36:57.201Z,51.323410
2022-11-07T09:37:57.175Z,51.323414
2022-11-07T09:38:57.154Z,51.323387
2022-11-07T09:39:57.133Z,51.323395
2022-11-07T09:40:57.137Z,51.323383
2022-11-07T09:41:57.093Z,51.323410
2022-11-07T09:42:57.065Z,51.323425
2022-11-07T09:43:57.050Z,51.323425
2022-11-07T09:44:57.034Z,51.323414
2022-11-07T09:45:57.033Z,51.323406
2022-11-07T09:46:56.989Z,51.323410
2022-11-07T09:47:56.968Z,51.323395
2022-11-07T09:48:56.947Z,51.323418
2022-11-07T09:49:56.921Z,51.323437
2022-11-07T09:50:56.934Z,51.323444
2022-11-07T09:51:56.877Z,51.323418
2022-11-07T09:52:56.862Z,51.323437
2022-11-07T09:53:56.844Z,51.323410
2022-11-07T09:54:56.821Z,51.323383
2022-11-07T09:55:56.824Z,51.323460
2022-11-07T09:56:56.774Z,51.323429
2022-11-07T09:57:56.753Z,51.323391
2022-11-07T09:58:56.732Z,51.323402
2022-11-07T09:59:56.729Z,51.323391
2022-11-07T10:00:56.756Z,51.323402
2022-11-07T10:01:56.792Z,51.323387
2022-11-07T10:02:56.644Z,51.323406
2022-11-07T10:04:58.613Z,51.323410
2022-11-07T10:05:56.612Z,51.323418
2022-11-07T10:06:56.571Z,51.323418
2022-11-07T10:07:56.548Z,51.323444
2022-11-07T10:08:56.525Z,51.323429
2022-11-07T10:09:56.498Z,51.323425
2022-11-07T10:10:56.530Z,51.323425
2022-11-07T10:11:56.458Z,51.323414
2022-11-07T10:12:56.443Z,51.323418
2022-11-07T10:13:56.416Z,51.323410
2022-11-07T10:14:56.395Z,51.323410
2022-11-07T10:15:56.414Z,51.323421
2022-11-07T10:16:56.351Z,51.323421
2022-11-07T10:17:56.335Z,51.323410
2022-11-07T10:18:56.312Z,51.323410
2022-11-07T10:19:56.285Z,51.323418
2022-11-07T10:21:16.055Z,51.323399
2022-11-07T10:21:58.248Z,51.323387
2022-11-07T10:22:56.222Z,51.323376
2022-11-07T10:23:56.200Z,51.323391
2022-11-07T10:24:56.181Z,51.323391
2022-11-07T10:25:56.184Z,51.323402
2022-11-07T10:26:56.139Z,51.323406
2022-11-07T10:27:56.114Z,51.323406
2022-11-07T10:28:56.094Z,51.323433
2022-11-07T10:29:56.079Z,51.323410
2022-11-07T10:30:56.073Z,51.323395
2022-11-07T10:31:56.035Z,51.323414
2022-11-07T10:32:56.002Z,51.323383
2022-11-07T10:33:55.989Z,51.323410
2022-11-07T10:34:55.966Z,51.323395
2022-11-07T10:35:55.962Z,51.323402
2022-11-07T10:36:55.918Z,51.323414
2022-11-07T10:37:55.899Z,51.323406
2022-11-07T10:38:55.877Z,51.323433
2022-11-07T10:39:55.852Z,51.323414
2022-11-07T10:40:55.856Z,51.323414
2022-11-07T10:41:56.809Z,51.323410
2022-11-07T10:42:55.790Z,51.323437
2022-11-07T10:43:55.763Z,51.323429
2022-11-07T10:44:55.743Z,51.323414
2022-11-07T10:45:55.745Z,51.323410
2022-11-07T10:46:55.713Z,51.323418
2022-11-07T10:47:55.674Z,51.323410
2022-11-07T10:48:55.655Z,51.323429
2022-11-07T10:49:55.632Z,51.323414
2022-11-07T10:50:55.643Z,51.323360
2022-11-07T10:51:55.594Z,51.323410
2022-11-07T10:52:55.573Z,51.323410
2022-11-07T10:53:55.550Z,51.323433
2022-11-07T10:54:55.531Z,51.323402
2022-11-07T10:55:55.532Z,51.323418
2022-11-07T10:56:55.491Z,51.323532
2022-11-07T10:57:55.465Z,51.323479
2022-11-07T10:58:55.448Z,51.323421
2022-11-07T10:59:55.422Z,51.323395
2022-11-07T11:00:55.458Z,51.323421
2022-11-07T11:01:55.457Z,51.323395
2022-11-07T11:02:55.461Z,51.323399
2022-11-07T11:03:55.343Z,51.323406
2022-11-07T11:04:55.312Z,51.323406
2022-11-07T11:05:55.325Z,51.323402
2022-11-07T11:06:55.271Z,51.323406
2022-11-07T11:07:55.257Z,51.323399
2022-11-07T11:08:55.227Z,51.323391
2022-11-07T11:09:55.214Z,51.323402
2022-11-07T11:10:55.213Z,51.323383
2022-11-07T11:11:55.165Z,51.323380
2022-11-07T11:12:55.143Z,51.323376
2022-11-07T11:13:55.121Z,51.323364
2022-11-07T11:14:55.124Z,51.323372
2022-11-07T11:15:55.107Z,51.323383
2022-11-07T11:16:55.101Z,51.323395
2022-11-07T11:17:55.042Z,51.323391
2022-11-07T11:18:55.025Z,51.323357
2022-11-07T11:19:54.995Z,51.323433
2022-11-07T11:20:55.005Z,51.323421
2022-11-07T11:21:54.959Z,51.323425
2022-11-07T11:22:54.938Z,51.323387
2022-11-07T11:23:54.924Z,51.323414
2022-11-07T11:24:54.888Z,51.323410
2022-11-07T11:25:54.887Z,51.323364